Terminal Aerodrome Forecast
Issued by NWS Indianapolis, IN

Home | Current Version | Previous Version | Text Only | Print | Product List | Glossary On
Versions: 1 2 3 4 5 6 7 8 9 10 11 12 13 14 15 16 17 18 19 20 21 22 23 24 25
476
FTUS43 KIND 270520
TAFIND
TAF
KIND 270520Z 2706/2812 VRB04KT P6SM -SHRA VCTS OVC080CB
     FM271000 VRB03KT P6SM -SHRA VCTS SCT025CB OVC060
     FM271500 22005KT P6SM -SHRA VCTS OVC025CB
     FM271800 24007KT 5SM -SHRA VCTS OVC015CB
     FM272200 26007KT P6SM -SHRA VCTS OVC045CB
     FM280000 24006KT P6SM BKN100=

USA.gov is the U.S. government's official web portal to all federal, state and local government web resources and services.